sensor_id;sensor_type;location;lat;lon;timestamp;P1;durP1;ratioP1;P2;durP2;ratioP2
49153;SDS011;49455;52.252;9.124;2023-11-21T12:59:57;20.90;;;10.45;;
49153;SDS011;49455;52.252;9.124;2023-11-21T13:04:58;16.25;;;10.32;;
49153;SDS011;49455;52.252;9.124;2023-11-21T13:09:58;16.05;;;10.52;;
49153;SDS011;49455;52.252;9.124;2023-11-21T13:15:03;15.68;;;9.68;;
49153;SDS011;49455;52.252;9.124;2023-11-21T13:20:05;14.57;;;9.20;;
49153;SDS011;49455;52.252;9.124;2023-11-21T13:25:06;13.55;;;9.68;;
49153;SDS011;49455;52.252;9.124;2023-11-21T13:30:07;13.80;;;9.48;;
49153;SDS011;49455;52.252;9.124;2023-11-21T13:35:08;17.13;;;10.73;;
49153;SDS011;49455;52.252;9.124;2023-11-21T13:40:08;17.02;;;9.90;;
49153;SDS011;49455;52.252;9.124;2023-11-21T13:45:09;15.57;;;10.45;;
49153;SDS011;49455;52.252;9.124;2023-11-21T13:50:09;17.80;;;10.60;;
49153;SDS011;49455;52.252;9.124;2023-11-21T13:55:10;17.45;;;10.25;;
49153;SDS011;49455;52.252;9.124;2023-11-21T14:00:11;17.42;;;11.07;;
49153;SDS011;49455;52.252;9.124;2023-11-21T14:05:12;17.63;;;10.55;;
49153;SDS011;49455;52.252;9.124;2023-11-21T14:10:13;15.57;;;10.63;;
49153;SDS011;49455;52.252;9.124;2023-11-21T14:15:13;16.77;;;10.40;;
49153;SDS011;49455;52.252;9.124;2023-11-21T14:20:13;17.23;;;10.60;;
49153;SDS011;49455;52.252;9.124;2023-11-21T14:25:14;18.23;;;9.80;;
49153;SDS011;49455;52.252;9.124;2023-11-21T14:30:16;13.95;;;9.35;;
49153;SDS011;49455;52.252;9.124;2023-11-21T14:35:16;16.13;;;9.18;;
49153;SDS011;49455;52.252;9.124;2023-11-21T14:40:16;16.17;;;9.32;;
49153;SDS011;49455;52.252;9.124;2023-11-21T14:45:18;15.25;;;9.20;;
49153;SDS011;49455;52.252;9.124;2023-11-21T14:50:19;15.13;;;9.80;;
49153;SDS011;49455;52.252;9.124;2023-11-21T14:55:19;15.70;;;9.38;;
49153;SDS011;49455;52.252;9.124;2023-11-21T15:00:20;13.10;;;8.68;;
49153;SDS011;49455;52.252;9.124;2023-11-21T15:05:21;14.35;;;9.38;;
49153;SDS011;49455;52.252;9.124;2023-11-21T15:10:21;18.55;;;11.77;;
49153;SDS011;49455;52.252;9.124;2023-11-21T15:15:22;25.98;;;16.38;;
49153;SDS011;49455;52.252;9.124;2023-11-21T15:20:22;15.93;;;10.88;;
49153;SDS011;49455;52.252;9.124;2023-11-21T15:25:22;15.40;;;11.02;;
49153;SDS011;49455;52.252;9.124;2023-11-21T15:30:23;16.10;;;11.05;;
49153;SDS011;49455;52.252;9.124;2023-11-21T15:35:23;16.27;;;11.20;;
49153;SDS011;49455;52.252;9.124;2023-11-21T15:40:24;19.05;;;12.10;;
49153;SDS011;49455;52.252;9.124;2023-11-21T15:45:24;20.33;;;13.45;;
49153;SDS011;49455;52.252;9.124;2023-11-21T15:50:25;21.17;;;14.25;;
49153;SDS011;49455;52.252;9.124;2023-11-21T15:55:25;19.42;;;13.80;;
49153;SDS011;49455;52.252;9.124;2023-11-21T16:00:26;24.60;;;14.32;;
49153;SDS011;49455;52.252;9.124;2023-11-21T16:05:26;19.52;;;12.65;;
49153;SDS011;49455;52.252;9.124;2023-11-21T16:10:27;17.55;;;11.95;;
49153;SDS011;49455;52.252;9.124;2023-11-21T16:15:27;20.73;;;14.10;;
49153;SDS011;49455;52.252;9.124;2023-11-21T16:20:28;19.02;;;13.02;;
49153;SDS011;49455;52.252;9.124;2023-11-21T16:25:29;20.80;;;11.38;;
49153;SDS011;49455;52.252;9.124;2023-11-21T16:30:30;18.30;;;11.30;;
49153;SDS011;49455;52.252;9.124;2023-11-21T16:35:31;15.15;;;10.23;;
49153;SDS011;49455;52.252;9.124;2023-11-21T16:40:32;17.80;;;11.25;;
49153;SDS011;49455;52.252;9.124;2023-11-21T16:45:32;17.08;;;11.68;;
49153;SDS011;49455;52.252;9.124;2023-11-21T16:50:33;16.35;;;11.23;;
49153;SDS011;49455;52.252;9.124;2023-11-21T16:55:33;19.33;;;12.35;;
49153;SDS011;49455;52.252;9.124;2023-11-21T17:00:33;17.30;;;11.82;;
49153;SDS011;49455;52.252;9.124;2023-11-21T17:05:35;17.23;;;11.60;;
49153;SDS011;49455;52.252;9.124;2023-11-21T17:10:35;16.55;;;11.27;;
49153;SDS011;49455;52.252;9.124;2023-11-21T17:15:35;18.00;;;11.73;;
49153;SDS011;49455;52.252;9.124;2023-11-21T17:20:36;16.13;;;10.57;;
49153;SDS011;49455;52.252;9.124;2023-11-21T17:25:36;15.48;;;10.10;;
49153;SDS011;49455;52.252;9.124;2023-11-21T17:30:37;18.48;;;12.57;;
49153;SDS011;49455;52.252;9.124;2023-11-21T17:35:39;17.33;;;11.85;;
49153;SDS011;49455;52.252;9.124;2023-11-21T17:40:40;18.70;;;11.52;;
49153;SDS011;49455;52.252;9.124;2023-11-21T17:45:40;17.85;;;12.48;;
49153;SDS011;49455;52.252;9.124;2023-11-21T17:50:41;17.23;;;11.60;;
49153;SDS011;49455;52.252;9.124;2023-11-21T17:55:41;16.48;;;10.85;;
49153;SDS011;49455;52.252;9.124;2023-11-21T18:00:42;17.77;;;10.55;;
49153;SDS011;49455;52.252;9.124;2023-11-21T18:05:42;19.27;;;11.52;;
49153;SDS011;49455;52.252;9.124;2023-11-21T18:10:42;14.90;;;10.40;;
49153;SDS011;49455;52.252;9.124;2023-11-21T18:15:43;14.02;;;9.85;;
49153;SDS011;49455;52.252;9.124;2023-11-21T18:20:43;18.40;;;11.85;;
49153;SDS011;49455;52.252;9.124;2023-11-21T18:25:44;16.45;;;11.25;;
49153;SDS011;49455;52.252;9.124;2023-11-21T18:30:44;18.38;;;11.13;;
49153;SDS011;49455;52.252;9.124;2023-11-21T18:35:45;17.25;;;11.88;;
49153;SDS011;49455;52.252;9.124;2023-11-21T18:40:45;16.25;;;10.32;;
49153;SDS011;49455;52.252;9.124;2023-11-21T18:45:46;15.55;;;9.90;;
49153;SDS011;49455;52.252;9.124;2023-11-21T18:50:46;15.10;;;10.23;;
49153;SDS011;49455;52.252;9.124;2023-11-21T18:55:47;17.48;;;11.23;;
